createdAt,value
2024-03-26T00:00:26.552Z,43.97
2024-03-26T00:00:57.402Z,44.30
2024-03-26T00:01:28.288Z,44.07
2024-03-26T00:02:01.466Z,45.30
2024-03-26T00:02:32.298Z,45.20
2024-03-26T00:03:03.133Z,45.87
2024-03-26T00:03:34.002Z,45.13
2024-03-26T00:04:04.803Z,48.83
2024-03-26T00:04:36.347Z,49.33
2024-03-26T00:05:07.988Z,48.10
2024-03-26T00:05:40.011Z,50.30
2024-03-26T00:06:10.829Z,46.30
2024-03-26T00:06:41.623Z,46.10
2024-03-26T00:07:12.419Z,44.67
2024-03-26T00:07:43.218Z,45.43
2024-03-26T00:08:14.017Z,45.60
2024-03-26T00:08:44.915Z,47.27
2024-03-26T00:09:15.711Z,45.03
2024-03-26T00:09:46.644Z,44.87
2024-03-26T00:10:17.442Z,46.10
2024-03-26T00:10:48.263Z,45.63
2024-03-26T00:11:22.908Z,44.87
2024-03-26T00:11:53.710Z,45.87
2024-03-26T00:12:24.524Z,45.60
2024-03-26T00:12:55.331Z,44.77
2024-03-26T00:13:26.163Z,44.50
2024-03-26T00:13:57.222Z,43.80
2024-03-26T00:14:28.076Z,45.47
2024-03-26T00:14:58.916Z,45.10
2024-03-26T00:15:29.713Z,44.63
2024-03-26T00:16:00.560Z,44.93
2024-03-26T00:16:31.363Z,44.30
2024-03-26T00:17:02.184Z,44.67
2024-03-26T00:17:32.974Z,44.43
2024-03-26T00:18:04.043Z,44.07
2024-03-26T00:18:34.829Z,43.40
2024-03-26T00:19:05.808Z,44.80
2024-03-26T00:19:36.601Z,44.03
2024-03-26T00:20:07.860Z,46.63
2024-03-26T00:20:43.309Z,45.00
2024-03-26T00:21:14.132Z,44.30
2024-03-26T00:21:44.928Z,45.20
2024-03-26T00:22:15.725Z,45.17
2024-03-26T00:22:46.533Z,43.47
2024-03-26T00:23:17.349Z,44.97
2024-03-26T00:23:48.367Z,44.53
2024-03-26T00:24:19.185Z,44.70
2024-03-26T00:24:50.129Z,46.17
2024-03-26T00:25:20.920Z,44.17
2024-03-26T00:25:51.705Z,43.23
2024-03-26T00:26:22.569Z,44.17
2024-03-26T00:26:53.433Z,44.57
2024-03-26T00:27:24.283Z,47.33
2024-03-26T00:27:55.220Z,47.03
2024-03-26T00:28:26.098Z,48.80
2024-03-26T00:28:56.887Z,48.07
2024-03-26T00:29:27.752Z,49.40
2024-03-26T00:29:58.721Z,49.97
2024-03-26T00:30:29.525Z,53.70
2024-03-26T00:31:00.376Z,53.70
2024-03-26T00:31:33.648Z,50.43
2024-03-26T00:32:04.499Z,50.40
2024-03-26T00:32:35.284Z,49.53
2024-03-26T00:33:06.198Z,48.07
2024-03-26T00:33:37.004Z,47.63
2024-03-26T00:34:07.859Z,45.67
2024-03-26T00:34:38.647Z,43.67
2024-03-26T00:35:09.438Z,43.83
2024-03-26T00:35:40.325Z,44.13
2024-03-26T00:36:12.085Z,44.70
2024-03-26T00:36:42.942Z,46.13
2024-03-26T00:37:13.787Z,45.50
2024-03-26T00:37:44.597Z,45.10
2024-03-26T00:38:15.390Z,46.60
2024-03-26T00:38:46.292Z,44.13
2024-03-26T00:39:17.083Z,44.30
2024-03-26T00:39:47.878Z,43.50
2024-03-26T00:40:19.371Z,45.53
2024-03-26T00:40:50.187Z,44.67
2024-03-26T00:41:21.043Z,44.57
2024-03-26T00:41:51.856Z,44.33
2024-03-26T00:42:22.664Z,45.50
2024-03-26T00:42:53.488Z,45.20
2024-03-26T00:43:24.331Z,44.33
2024-03-26T00:43:55.129Z,44.83
2024-03-26T00:44:25.926Z,43.43
2024-03-26T00:44:56.732Z,42.63
2024-03-26T00:45:27.595Z,43.57
2024-03-26T00:45:58.421Z,44.43
2024-03-26T00:46:30.058Z,45.03
2024-03-26T00:47:00.857Z,44.67
2024-03-26T00:47:31.645Z,43.40
2024-03-26T00:48:02.635Z,45.10
2024-03-26T00:48:33.426Z,45.47
2024-03-26T00:49:04.256Z,44.90
2024-03-26T00:49:35.047Z,44.93
2024-03-26T00:50:06.413Z,44.70
2024-03-26T00:50:37.348Z,44.47
2024-03-26T00:51:08.509Z,43.83
2024-03-26T00:51:44.487Z,43.77
2024-03-26T00:52:15.354Z,43.73
2024-03-26T00:52:46.237Z,46.33
2024-03-26T00:53:17.038Z,46.30
2024-03-26T00:53:47.833Z,43.97
2024-03-26T00:54:18.666Z,43.30
2024-03-26T00:54:49.473Z,43.90
2024-03-26T00:55:20.270Z,43.90
2024-03-26T00:55:51.078Z,43.87
2024-03-26T00:56:21.909Z,43.83
2024-03-26T00:56:52.716Z,44.20
2024-03-26T00:57:23.581Z,45.33
2024-03-26T00:57:54.444Z,43.67
2024-03-26T00:58:25.260Z,42.77
2024-03-26T00:58:56.057Z,43.17
2024-03-26T00:59:26.929Z,42.57
2024-03-26T00:59:57.718Z,43.53
2024-03-26T01:00:28.570Z,43.57
2024-03-26T01:00:59.382Z,45.20
2024-03-26T01:01:30.225Z,45.67
2024-03-26T01:02:01.035Z,44.20
2024-03-26T01:02:32.243Z,43.57
2024-03-26T01:03:03.041Z,42.03
2024-03-26T01:03:33.840Z,42.57
2024-03-26T01:04:05.079Z,44.17
2024-03-26T01:04:35.895Z,43.93
2024-03-26T01:05:06.993Z,42.03
2024-03-26T01:05:37.784Z,42.50
2024-03-26T01:06:08.659Z,44.60
2024-03-26T01:06:40.505Z,45.23
2024-03-26T01:07:11.301Z,43.57
2024-03-26T01:07:42.194Z,43.37
2024-03-26T01:08:13.013Z,41.87
2024-03-26T01:08:43.805Z,42.63
2024-03-26T01:09:14.659Z,42.40
2024-03-26T01:09:45.502Z,42.67
2024-03-26T01:10:16.554Z,42.63
2024-03-26T01:10:47.940Z,42.77
2024-03-26T01:11:18.726Z,43.90
2024-03-26T01:11:49.514Z,44.90
2024-03-26T01:12:20.334Z,44.27
2024-03-26T01:12:51.118Z,44.07
2024-03-26T01:13:21.937Z,44.60
2024-03-26T01:13:53.157Z,46.00
2024-03-26T01:14:24.013Z,46.07
2024-03-26T01:14:54.916Z,45.47
2024-03-26T01:15:25.711Z,45.40
2024-03-26T01:15:56.552Z,45.67
2024-03-26T01:16:27.350Z,46.33
2024-03-26T01:16:58.223Z,45.33
2024-03-26T01:17:29.021Z,44.90
2024-03-26T01:17:59.827Z,42.63
2024-03-26T01:18:30.702Z,43.87
2024-03-26T01:19:01.486Z,43.30
2024-03-26T01:19:32.290Z,43.93
2024-03-26T01:20:03.368Z,44.33
2024-03-26T01:20:34.331Z,46.37
2024-03-26T01:21:05.389Z,43.83
2024-03-26T01:21:36.221Z,42.83
2024-03-26T01:22:07.094Z,43.97
2024-03-26T01:22:39.035Z,44.33
2024-03-26T01:23:09.889Z,41.80
2024-03-26T01:23:40.723Z,41.90
2024-03-26T01:24:11.537Z,42.03
2024-03-26T01:24:42.357Z,43.70
2024-03-26T01:25:13.176Z,42.90
2024-03-26T01:25:43.975Z,42.43
2024-03-26T01:26:14.838Z,42.03
2024-03-26T01:26:45.647Z,42.87
2024-03-26T01:27:16.495Z,40.93
2024-03-26T01:27:47.286Z,42.20
2024-03-26T01:28:18.178Z,42.00
2024-03-26T01:28:48.973Z,42.50
2024-03-26T01:29:19.769Z,42.17
2024-03-26T01:29:50.665Z,40.87
2024-03-26T01:30:21.741Z,41.00
2024-03-26T01:30:52.600Z,40.57
2024-03-26T01:31:23.474Z,40.33
2024-03-26T01:31:54.373Z,42.37
2024-03-26T01:32:25.428Z,41.90
2024-03-26T01:32:56.232Z,43.43
2024-03-26T01:33:27.038Z,42.40
2024-03-26T01:33:57.844Z,41.47
2024-03-26T01:34:28.951Z,40.97
2024-03-26T01:34:59.737Z,39.93
2024-03-26T01:35:30.542Z,41.60
2024-03-26T01:36:01.345Z,42.10
2024-03-26T01:36:32.295Z,39.90
2024-03-26T01:37:03.179Z,40.50
2024-03-26T01:37:33.978Z,42.37
2024-03-26T01:38:04.832Z,40.93
2024-03-26T01:38:35.619Z,40.77
2024-03-26T01:39:06.611Z,41.13
2024-03-26T01:39:37.405Z,38.70
2024-03-26T01:40:12.194Z,39.70
2024-03-26T01:40:43.007Z,40.77
2024-03-26T01:41:13.799Z,39.80
2024-03-26T01:41:44.635Z,38.20
2024-03-26T01:42:15.512Z,38.43
2024-03-26T01:42:46.312Z,39.37
2024-03-26T01:43:17.117Z,37.43
2024-03-26T01:43:47.909Z,39.73
2024-03-26T01:44:18.796Z,38.90
2024-03-26T01:44:49.585Z,39.33
2024-03-26T01:45:20.413Z,36.77
2024-03-26T01:45:51.239Z,36.73
2024-03-26T01:46:22.462Z,36.17
2024-03-26T01:46:53.345Z,37.40
2024-03-26T01:47:24.195Z,38.40
2024-03-26T01:47:55.084Z,38.87
2024-03-26T01:48:26.070Z,38.00
2024-03-26T01:48:57.080Z,36.20
2024-03-26T01:49:30.235Z,35.80
2024-03-26T01:50:08.608Z,36.43
2024-03-26T01:50:40.178Z,36.57
2024-03-26T01:51:10.990Z,36.70
2024-03-26T01:51:43.996Z,36.40
2024-03-26T01:52:15.315Z,36.33
2024-03-26T01:52:47.158Z,38.07
2024-03-26T01:53:19.787Z,36.83
2024-03-26T01:53:50.782Z,36.13
2024-03-26T01:54:21.611Z,36.53
2024-03-26T01:54:52.606Z,38.50
2024-03-26T01:55:23.474Z,37.87
2024-03-26T01:55:55.068Z,37.33
2024-03-26T01:56:27.027Z,36.57
2024-03-26T01:56:58.087Z,36.33
2024-03-26T01:57:29.330Z,38.47
2024-03-26T01:58:01.374Z,36.37
2024-03-26T01:58:32.675Z,34.93
2024-03-26T01:59:03.544Z,35.57
2024-03-26T01:59:35.160Z,35.20
2024-03-26T02:00:07.117Z,36.07
2024-03-26T02:00:39.613Z,34.50
2024-03-26T02:01:12.215Z,35.70
2024-03-26T02:01:43.040Z,34.97
2024-03-26T02:02:13.882Z,35.13
2024-03-26T02:02:44.941Z,35.07
2024-03-26T02:03:15.753Z,33.57
2024-03-26T02:03:46.564Z,35.03
2024-03-26T02:04:17.411Z,36.37
2024-03-26T02:04:48.762Z,36.80
2024-03-26T02:05:19.651Z,36.17
2024-03-26T02:05:50.663Z,36.03
2024-03-26T02:06:21.904Z,35.77
2024-03-26T02:06:52.887Z,35.90
2024-03-26T02:07:23.772Z,35.27
2024-03-26T02:07:59.207Z,34.63
2024-03-26T02:08:30.295Z,35.20
2024-03-26T02:09:02.268Z,35.23
2024-03-26T02:09:33.126Z,35.07
2024-03-26T02:10:08.885Z,34.60
2024-03-26T02:10:39.813Z,34.27
2024-03-26T02:11:12.820Z,34.73
2024-03-26T02:11:43.670Z,34.10
2024-03-26T02:12:14.557Z,34.57
2024-03-26T02:12:45.411Z,36.43
2024-03-26T02:13:16.724Z,35.27
2024-03-26T02:13:47.747Z,34.60
2024-03-26T02:14:20.211Z,34.67
2024-03-26T02:14:51.032Z,35.60
2024-03-26T02:15:21.874Z,36.50
2024-03-26T02:15:52.721Z,35.27
2024-03-26T02:16:23.522Z,34.60
2024-03-26T02:16:54.332Z,35.00
2024-03-26T02:17:25.133Z,35.33
2024-03-26T02:17:55.920Z,35.40
2024-03-26T02:18:26.713Z,34.80
2024-03-26T02:18:57.519Z,35.30
2024-03-26T02:19:29.321Z,35.73
2024-03-26T02:20:00.161Z,35.80
2024-03-26T02:20:30.977Z,35.07
2024-03-26T02:21:01.783Z,35.53
2024-03-26T02:21:32.575Z,35.30
2024-03-26T02:22:03.359Z,33.90
2024-03-26T02:22:34.170Z,34.03
2024-03-26T02:23:04.994Z,35.03
2024-03-26T02:23:36.378Z,34.10
2024-03-26T02:24:07.170Z,33.63
2024-03-26T02:24:38.035Z,34.20
2024-03-26T02:25:08.818Z,33.57
2024-03-26T02:25:39.665Z,33.50
2024-03-26T02:26:17.386Z,33.93
2024-03-26T02:26:49.460Z,34.40
2024-03-26T02:27:20.244Z,34.43
2024-03-26T02:27:51.050Z,34.53
2024-03-26T02:28:22.008Z,34.30
2024-03-26T02:28:55.651Z,33.83
2024-03-26T02:29:26.480Z,33.17
2024-03-26T02:29:57.278Z,32.57
2024-03-26T02:30:29.604Z,33.43
2024-03-26T02:31:00.403Z,33.63
2024-03-26T02:31:31.276Z,34.03
2024-03-26T02:32:02.208Z,33.10
2024-03-26T02:32:33.000Z,33.33
2024-03-26T02:33:03.895Z,33.03
2024-03-26T02:33:34.705Z,33.07
2024-03-26T02:34:05.576Z,32.00
2024-03-26T02:34:36.368Z,33.43
2024-03-26T02:35:07.455Z,31.70
2024-03-26T02:35:38.253Z,31.57
2024-03-26T02:36:09.059Z,32.40
2024-03-26T02:36:39.848Z,32.23
2024-03-26T02:37:10.746Z,33.17
2024-03-26T02:37:41.814Z,32.47
2024-03-26T02:38:12.605Z,31.40
2024-03-26T02:38:43.389Z,31.30
2024-03-26T02:39:14.662Z,31.17
2024-03-26T02:39:45.450Z,31.80
2024-03-26T02:40:16.293Z,31.93
2024-03-26T02:40:47.097Z,33.83
2024-03-26T02:41:19.016Z,33.10
2024-03-26T02:41:50.449Z,33.13
2024-03-26T02:42:21.522Z,32.73
2024-03-26T02:42:53.038Z,32.30
2024-03-26T02:43:23.858Z,30.73
2024-03-26T02:43:54.658Z,31.23
2024-03-26T02:44:25.445Z,31.07
2024-03-26T02:44:56.407Z,30.23
2024-03-26T02:45:27.536Z,30.33
2024-03-26T02:45:58.351Z,31.30
2024-03-26T02:46:29.332Z,30.73
2024-03-26T02:47:00.133Z,31.97
2024-03-26T02:47:31.031Z,31.67
2024-03-26T02:48:04.669Z,30.57
2024-03-26T02:48:35.463Z,30.33
2024-03-26T02:49:06.258Z,30.43
2024-03-26T02:49:37.047Z,30.97
2024-03-26T02:50:08.098Z,31.27
2024-03-26T02:50:38.918Z,31.27
2024-03-26T02:51:09.756Z,31.63
2024-03-26T02:51:40.553Z,30.40
2024-03-26T02:52:11.345Z,30.40
2024-03-26T02:52:42.264Z,29.50
2024-03-26T02:53:13.076Z,29.47
2024-03-26T02:53:43.866Z,29.47
2024-03-26T02:54:14.716Z,30.27
2024-03-26T02:54:45.505Z,30.80
2024-03-26T02:55:16.298Z,30.53
2024-03-26T02:55:47.098Z,27.97
2024-03-26T02:56:17.897Z,29.23
2024-03-26T02:56:48.749Z,29.23
2024-03-26T02:57:19.568Z,28.03
2024-03-26T02:57:50.354Z,28.70
2024-03-26T02:58:21.135Z,30.63
2024-03-26T02:58:51.932Z,28.70
2024-03-26T02:59:22.783Z,27.80
2024-03-26T02:59:53.644Z,28.40
2024-03-26T03:00:24.447Z,26.93
2024-03-26T03:01:24.640Z,26.33
2024-03-26T03:01:55.436Z,27.10
2024-03-26T03:02:26.237Z,26.80
2024-03-26T03:02:57.039Z,26.97
2024-03-26T03:03:27.905Z,26.73
2024-03-26T03:03:58.691Z,26.20
2024-03-26T03:04:29.575Z,26.53
2024-03-26T03:05:00.375Z,26.70
2024-03-26T03:05:31.296Z,26.00
2024-03-26T03:06:02.105Z,25.57
2024-03-26T03:06:32.896Z,25.67
2024-03-26T03:07:03.692Z,25.47
2024-03-26T03:07:34.482Z,26.20
2024-03-26T03:08:05.512Z,25.33
2024-03-26T03:08:37.142Z,25.60
2024-03-26T03:09:08.304Z,26.10
2024-03-26T03:09:39.868Z,25.90
2024-03-26T03:10:10.653Z,25.73
2024-03-26T03:10:41.441Z,25.93
2024-03-26T03:11:12.264Z,25.50
2024-03-26T03:11:43.143Z,25.13
2024-03-26T03:12:13.947Z,26.67
2024-03-26T03:12:44.750Z,24.90
2024-03-26T03:13:15.610Z,24.43
2024-03-26T03:13:46.432Z,26.03
2024-03-26T03:14:17.218Z,26.77
2024-03-26T03:14:48.140Z,25.33
2024-03-26T03:15:19.078Z,25.77
2024-03-26T03:15:49.865Z,24.63
2024-03-26T03:16:20.668Z,24.13
2024-03-26T03:16:51.655Z,25.03
2024-03-26T03:17:22.450Z,25.87
2024-03-26T03:17:53.239Z,25.23
2024-03-26T03:18:25.007Z,24.57
2024-03-26T03:18:56.890Z,24.80
2024-03-26T03:19:27.692Z,24.40
2024-03-26T03:19:58.545Z,23.97
2024-03-26T03:20:29.346Z,23.47
2024-03-26T03:21:00.193Z,24.47
2024-03-26T03:21:30.987Z,24.27
2024-03-26T03:22:01.785Z,24.17
2024-03-26T03:22:32.601Z,24.07
2024-03-26T03:23:03.503Z,25.03
2024-03-26T03:23:34.303Z,24.77
2024-03-26T03:24:05.285Z,24.00
2024-03-26T03:24:36.080Z,23.40
2024-03-26T03:25:07.197Z,24.60
2024-03-26T03:25:38.519Z,24.10
2024-03-26T03:26:09.378Z,23.27
2024-03-26T03:26:40.171Z,23.40
2024-03-26T03:27:10.958Z,22.50
2024-03-26T03:27:41.747Z,23.70
2024-03-26T03:28:12.562Z,24.30
2024-03-26T03:28:43.396Z,22.80
2024-03-26T03:29:14.197Z,21.30
2024-03-26T03:29:44.990Z,20.73
2024-03-26T03:30:15.838Z,21.27
2024-03-26T03:30:46.733Z,21.27
2024-03-26T03:31:17.520Z,21.70
2024-03-26T03:31:48.321Z,22.43
2024-03-26T03:32:19.106Z,22.43
2024-03-26T03:32:49.937Z,21.93
2024-03-26T03:33:20.743Z,21.07
2024-03-26T03:33:51.531Z,19.97
2024-03-26T03:34:22.335Z,20.87
2024-03-26T03:34:53.780Z,21.23
2024-03-26T03:35:24.578Z,19.70
2024-03-26T03:35:55.467Z,20.43
2024-03-26T03:36:26.255Z,20.00
2024-03-26T03:36:57.054Z,20.03
2024-03-26T03:37:27.989Z,19.67
2024-03-26T03:37:58.786Z,18.77
2024-03-26T03:38:29.571Z,19.60
2024-03-26T03:39:00.383Z,19.63
2024-03-26T03:39:31.211Z,19.23
2024-03-26T03:40:02.138Z,19.50
2024-03-26T03:40:33.961Z,19.90
2024-03-26T03:41:04.753Z,20.53
2024-03-26T03:41:35.561Z,19.37
2024-03-26T03:42:06.536Z,18.77
2024-03-26T03:42:37.484Z,18.47
2024-03-26T03:43:08.293Z,18.30
2024-03-26T03:43:39.118Z,18.57
2024-03-26T03:44:09.915Z,18.80
2024-03-26T03:44:40.711Z,17.80
2024-03-26T03:45:12.089Z,19.00
2024-03-26T03:45:42.906Z,19.47
2024-03-26T03:46:13.956Z,18.73
2024-03-26T03:46:45.530Z,19.17
2024-03-26T03:47:16.318Z,18.93
2024-03-26T03:47:47.115Z,18.93
2024-03-26T03:48:17.984Z,19.73
2024-03-26T03:48:49.866Z,19.67
2024-03-26T03:49:20.977Z,19.10
2024-03-26T03:49:51.773Z,18.53
2024-03-26T03:50:22.866Z,19.90
2024-03-26T03:50:53.667Z,19.53
2024-03-26T03:51:24.462Z,18.47
2024-03-26T03:51:56.744Z,19.57
2024-03-26T03:52:27.548Z,18.70
2024-03-26T03:52:58.424Z,19.07
2024-03-26T03:53:29.213Z,19.03
2024-03-26T03:54:00.012Z,19.57
2024-03-26T03:54:30.808Z,17.90
2024-03-26T03:55:01.663Z,18.87
2024-03-26T03:55:32.465Z,18.40
2024-03-26T03:56:03.415Z,19.23
2024-03-26T03:56:34.204Z,19.27
2024-03-26T03:57:05.141Z,19.00
2024-03-26T03:57:35.932Z,18.87
2024-03-26T03:58:07.898Z,19.00
2024-03-26T03:58:38.684Z,18.87
2024-03-26T03:59:09.502Z,18.50
2024-03-26T03:59:40.338Z,19.40
2024-03-26T04:00:11.661Z,19.70
2024-03-26T04:00:42.450Z,19.97
2024-03-26T04:01:13.239Z,19.73
2024-03-26T04:01:44.038Z,20.27
2024-03-26T04:02:14.831Z,20.43
2024-03-26T04:02:45.694Z,19.73
2024-03-26T04:03:16.485Z,20.03
2024-03-26T04:03:47.657Z,19.87
2024-03-26T04:04:18.501Z,21.13
2024-03-26T04:04:49.320Z,21.90
2024-03-26T04:05:20.139Z,20.90
2024-03-26T04:05:51.246Z,20.23
2024-03-26T04:06:22.043Z,20.67
2024-03-26T04:06:52.840Z,20.10
2024-03-26T04:07:23.751Z,21.70
2024-03-26T04:07:54.605Z,22.77
2024-03-26T04:08:25.402Z,21.87
2024-03-26T04:08:56.259Z,23.43
2024-03-26T04:09:27.051Z,23.47
2024-03-26T04:09:58.377Z,23.53
2024-03-26T04:10:30.168Z,24.70
2024-03-26T04:11:01.429Z,25.50
2024-03-26T04:11:32.335Z,25.30
2024-03-26T04:12:03.340Z,24.93
2024-03-26T04:12:34.132Z,25.23
2024-03-26T04:13:04.948Z,25.27
2024-03-26T04:13:35.740Z,25.30
2024-03-26T04:14:06.890Z,24.50
2024-03-26T04:14:37.699Z,26.20
2024-03-26T04:15:10.638Z,26.23
2024-03-26T04:15:41.737Z,27.67
2024-03-26T04:16:12.610Z,26.20
2024-03-26T04:16:46.279Z,26.00
2024-03-26T04:17:17.174Z,26.70
2024-03-26T04:17:51.196Z,26.30
2024-03-26T04:18:22.152Z,27.47
2024-03-26T04:18:52.944Z,27.50
2024-03-26T04:19:25.566Z,29.07
2024-03-26T04:19:56.359Z,28.93
2024-03-26T04:20:27.232Z,28.67
2024-03-26T04:20:58.097Z,28.73
2024-03-26T04:21:28.895Z,28.20
2024-03-26T04:21:59.767Z,27.50
2024-03-26T04:22:31.045Z,28.03
2024-03-26T04:23:01.836Z,29.87
2024-03-26T04:23:32.776Z,29.73
2024-03-26T04:24:03.855Z,29.33
2024-03-26T04:24:34.722Z,28.37
2024-03-26T04:25:05.767Z,28.20
2024-03-26T04:25:36.557Z,28.90
2024-03-26T04:26:07.344Z,30.03
2024-03-26T04:26:38.210Z,29.13
2024-03-26T04:27:08.999Z,29.50
2024-03-26T04:27:39.867Z,31.13
2024-03-26T04:28:10.671Z,29.70
2024-03-26T04:28:41.462Z,28.10
2024-03-26T04:29:12.256Z,27.93
2024-03-26T04:29:43.070Z,28.90
2024-03-26T04:30:13.938Z,28.70
2024-03-26T04:30:44.733Z,26.70
2024-03-26T04:31:15.524Z,26.77
2024-03-26T04:31:46.322Z,27.03
2024-03-26T04:32:17.114Z,28.13
2024-03-26T04:32:47.912Z,27.50
2024-03-26T04:33:18.715Z,26.27
2024-03-26T04:33:49.496Z,25.60
2024-03-26T04:34:20.343Z,26.57
2024-03-26T04:34:51.234Z,27.43
2024-03-26T04:35:22.096Z,25.60
2024-03-26T04:35:52.920Z,27.17
2024-03-26T04:36:23.709Z,26.40
2024-03-26T04:37:00.234Z,26.37
2024-03-26T04:37:31.225Z,27.47
2024-03-26T04:38:02.583Z,28.33
2024-03-26T04:38:34.011Z,27.97
2024-03-26T04:39:04.803Z,27.07
2024-03-26T04:39:35.589Z,26.90
2024-03-26T04:40:06.917Z,26.87
2024-03-26T04:40:38.625Z,26.93
2024-03-26T04:41:09.435Z,28.07
2024-03-26T04:41:40.226Z,26.67
2024-03-26T04:42:11.019Z,27.50
2024-03-26T04:42:41.869Z,27.60
2024-03-26T04:43:13.147Z,27.17
2024-03-26T04:43:43.944Z,27.40
2024-03-26T04:44:14.744Z,27.53
2024-03-26T04:44:45.704Z,28.37
2024-03-26T04:45:16.738Z,28.60
2024-03-26T04:45:48.646Z,28.57
2024-03-26T04:46:20.539Z,28.37
2024-03-26T04:46:51.593Z,26.50
2024-03-26T04:47:22.429Z,26.37
2024-03-26T04:47:53.277Z,26.43
2024-03-26T04:48:24.079Z,26.90
2024-03-26T04:48:54.867Z,28.67
2024-03-26T04:49:25.721Z,27.03
2024-03-26T04:49:57.235Z,28.10
2024-03-26T04:50:28.267Z,27.47
2024-03-26T04:50:59.063Z,26.83
2024-03-26T04:51:29.913Z,27.43
2024-03-26T04:52:00.730Z,27.67
2024-03-26T04:52:31.524Z,26.37
2024-03-26T04:53:02.336Z,25.97
2024-03-26T04:53:33.137Z,25.00
2024-03-26T04:54:04.850Z,25.67
2024-03-26T04:54:35.636Z,27.20
2024-03-26T04:55:06.736Z,27.00
2024-03-26T04:55:37.572Z,26.47
2024-03-26T04:56:08.452Z,25.63
2024-03-26T04:56:39.567Z,26.77
2024-03-26T04:57:10.422Z,27.70
2024-03-26T04:57:41.885Z,26.83
2024-03-26T04:58:12.674Z,25.33
2024-03-26T04:58:44.387Z,24.87
2024-03-26T04:59:15.182Z,25.00
2024-03-26T04:59:46.061Z,25.17
2024-03-26T05:00:17.128Z,25.50
2024-03-26T05:00:48.910Z,25.40
2024-03-26T05:01:19.704Z,25.67
2024-03-26T05:01:50.501Z,25.13
2024-03-26T05:02:21.311Z,25.53
2024-03-26T05:02:52.104Z,24.30
2024-03-26T05:03:22.893Z,24.43
2024-03-26T05:03:53.682Z,23.83
2024-03-26T05:04:24.518Z,24.80
2024-03-26T05:04:55.904Z,25.07
2024-03-26T05:05:26.825Z,25.33
2024-03-26T05:05:57.625Z,25.17
2024-03-26T05:06:28.416Z,24.37
2024-03-26T05:07:01.066Z,24.87
2024-03-26T05:07:35.531Z,25.70
2024-03-26T05:08:06.334Z,23.03
2024-03-26T05:08:37.327Z,23.93
2024-03-26T05:09:10.099Z,23.37
2024-03-26T05:09:40.894Z,22.87
2024-03-26T05:10:11.704Z,23.33
2024-03-26T05:10:42.558Z,23.17
2024-03-26T05:11:13.418Z,24.53
2024-03-26T05:11:44.546Z,24.73
2024-03-26T05:12:15.336Z,23.30
2024-03-26T05:12:46.604Z,22.33
2024-03-26T05:13:17.410Z,24.70
2024-03-26T05:13:48.203Z,23.47
2024-03-26T05:14:18.993Z,24.10
2024-03-26T05:14:49.893Z,22.60
2024-03-26T05:15:20.726Z,22.33
2024-03-26T05:15:52.119Z,21.67
2024-03-26T05:16:22.978Z,21.60
2024-03-26T05:16:53.766Z,22.77
2024-03-26T05:17:24.637Z,23.13
2024-03-26T05:17:55.433Z,23.20
2024-03-26T05:18:26.257Z,23.57
2024-03-26T05:18:57.434Z,23.83
2024-03-26T05:19:28.230Z,23.97
2024-03-26T05:19:59.029Z,24.03
2024-03-26T05:20:29.819Z,23.30
2024-03-26T05:21:00.643Z,23.33
2024-03-26T05:21:31.443Z,23.17
2024-03-26T05:22:02.232Z,22.70
2024-03-26T05:22:33.116Z,23.97
2024-03-26T05:23:04.049Z,24.57
2024-03-26T05:23:34.843Z,25.07
2024-03-26T05:24:05.656Z,25.27
2024-03-26T05:24:38.477Z,24.33
2024-03-26T05:25:09.269Z,24.63
2024-03-26T05:25:40.060Z,25.63
2024-03-26T05:26:10.853Z,26.63
2024-03-26T05:26:41.643Z,25.00
2024-03-26T05:27:12.439Z,24.80
2024-03-26T05:27:43.289Z,23.73
2024-03-26T05:28:14.077Z,24.37
2024-03-26T05:28:44.879Z,24.00
2024-03-26T05:29:18.524Z,22.67
2024-03-26T05:29:50.506Z,22.30
2024-03-26T05:30:21.354Z,22.47
2024-03-26T05:30:52.585Z,24.10
2024-03-26T05:31:23.564Z,22.67
2024-03-26T05:31:54.350Z,21.97
2024-03-26T05:32:25.138Z,21.73
2024-03-26T05:32:56.023Z,22.23
2024-03-26T05:33:26.814Z,21.80
2024-03-26T05:33:57.610Z,22.10
2024-03-26T05:34:28.859Z,21.13
2024-03-26T05:34:59.650Z,21.33
2024-03-26T05:35:30.655Z,20.97
2024-03-26T05:36:02.240Z,21.23
2024-03-26T05:36:33.034Z,21.63
2024-03-26T05:37:03.890Z,23.03
2024-03-26T05:37:37.108Z,23.60
2024-03-26T05:38:07.911Z,21.53
2024-03-26T05:38:39.296Z,20.83
2024-03-26T05:39:11.240Z,21.60
2024-03-26T05:39:42.450Z,23.70
2024-03-26T05:40:14.389Z,22.87
2024-03-26T05:40:46.475Z,23.73
2024-03-26T05:41:17.264Z,22.40
2024-03-26T05:41:49.267Z,23.60
2024-03-26T05:42:20.071Z,23.27
2024-03-26T05:42:50.925Z,22.27
2024-03-26T05:43:21.744Z,22.83
2024-03-26T05:43:53.520Z,22.60
2024-03-26T05:44:24.544Z,22.83
2024-03-26T05:44:55.483Z,22.50
2024-03-26T05:45:26.789Z,22.43
2024-03-26T05:45:58.012Z,22.27
2024-03-26T05:46:28.948Z,23.07
2024-03-26T05:46:59.759Z,22.90
2024-03-26T05:47:30.644Z,22.37
2024-03-26T05:48:01.488Z,22.87
2024-03-26T05:48:32.284Z,22.57
2024-03-26T05:49:03.153Z,22.57
2024-03-26T05:49:35.304Z,23.07
2024-03-26T05:50:06.685Z,23.77
2024-03-26T05:50:37.470Z,23.57
2024-03-26T05:51:08.262Z,24.13
2024-03-26T05:51:39.055Z,24.70
2024-03-26T05:52:09.846Z,24.67
2024-03-26T05:52:40.677Z,23.97
2024-03-26T05:53:11.532Z,24.43
2024-03-26T05:53:42.494Z,26.67
2024-03-26T05:54:13.303Z,28.83
2024-03-26T05:54:44.123Z,29.60
2024-03-26T05:55:14.971Z,29.70
2024-03-26T05:55:45.916Z,27.70
2024-03-26T05:56:17.014Z,26.67
2024-03-26T05:56:47.839Z,29.07
2024-03-26T05:57:18.691Z,27.97
2024-03-26T05:57:49.474Z,26.07
2024-03-26T05:58:20.262Z,24.90
2024-03-26T05:58:52.137Z,24.47
2024-03-26T05:59:23.063Z,24.97
2024-03-26T05:59:54.025Z,24.33
2024-03-26T06:00:24.883Z,24.90
2024-03-26T06:00:55.742Z,23.90
2024-03-26T06:01:26.581Z,22.73
2024-03-26T06:01:57.396Z,21.97
2024-03-26T06:02:30.723Z,21.40
2024-03-26T06:03:01.535Z,20.83
2024-03-26T06:03:32.442Z,20.93
2024-03-26T06:04:03.311Z,20.77
2024-03-26T06:04:34.143Z,20.83
2024-03-26T06:05:05.164Z,19.83
2024-03-26T06:05:36.036Z,20.13
2024-03-26T06:06:06.825Z,23.93
2024-03-26T06:06:37.619Z,26.87
2024-03-26T06:07:08.416Z,25.43
2024-03-26T06:07:39.206Z,25.73
2024-03-26T06:08:10.510Z,24.87
2024-03-26T06:08:44.099Z,25.10
2024-03-26T06:09:14.893Z,23.80
2024-03-26T06:09:45.679Z,22.57
2024-03-26T06:10:16.490Z,21.03
2024-03-26T06:10:47.864Z,19.80
2024-03-26T06:11:18.664Z,19.77
2024-03-26T06:11:49.548Z,20.73
2024-03-26T06:12:20.413Z,20.77
2024-03-26T06:12:51.207Z,20.00
2024-03-26T06:13:22.003Z,19.67
2024-03-26T06:13:52.798Z,19.97
2024-03-26T06:14:26.175Z,20.67
2024-03-26T06:14:56.970Z,20.50
2024-03-26T06:15:27.765Z,19.80
2024-03-26T06:16:09.366Z,20.30
2024-03-26T06:16:40.228Z,21.83
2024-03-26T06:17:11.020Z,21.00
2024-03-26T06:17:41.835Z,19.97
2024-03-26T06:18:12.913Z,19.40
2024-03-26T06:18:43.710Z,19.83
2024-03-26T06:19:14.499Z,20.60
2024-03-26T06:19:45.291Z,20.47
2024-03-26T06:20:16.095Z,20.00
2024-03-26T06:20:47.009Z,20.83
2024-03-26T06:21:17.801Z,19.27
2024-03-26T06:21:48.590Z,20.20
2024-03-26T06:22:19.739Z,19.83
2024-03-26T06:22:50.586Z,21.83
2024-03-26T06:23:21.453Z,23.53
2024-03-26T06:23:53.071Z,24.67
2024-03-26T06:24:23.872Z,25.10
2024-03-26T06:24:54.925Z,22.40
2024-03-26T06:25:25.788Z,23.37
2024-03-26T06:25:56.639Z,23.40
2024-03-26T06:26:27.478Z,23.80
2024-03-26T06:26:58.317Z,24.33
2024-03-26T06:27:29.148Z,23.87
2024-03-26T06:28:00.021Z,22.97
2024-03-26T06:28:30.836Z,22.67
2024-03-26T06:29:02.323Z,22.77
2024-03-26T06:29:33.297Z,22.50
2024-03-26T06:30:04.746Z,21.43
2024-03-26T06:30:37.452Z,21.30
2024-03-26T06:31:08.249Z,22.07
2024-03-26T06:31:39.053Z,21.83
2024-03-26T06:32:09.859Z,20.70
2024-03-26T06:32:40.948Z,20.33
2024-03-26T06:33:11.942Z,20.83
2024-03-26T06:33:42.739Z,21.43
2024-03-26T06:34:13.584Z,21.47
2024-03-26T06:34:44.437Z,21.73
2024-03-26T06:35:15.456Z,22.03
2024-03-26T06:35:46.831Z,21.33
2024-03-26T06:36:17.623Z,20.63
2024-03-26T06:36:48.444Z,20.77
2024-03-26T06:37:19.285Z,21.17
2024-03-26T06:37:50.074Z,21.90
2024-03-26T06:38:20.984Z,21.30
2024-03-26T06:38:53.234Z,20.37
2024-03-26T06:39:24.080Z,20.60
2024-03-26T06:39:54.864Z,20.77
2024-03-26T06:40:25.672Z,20.70
2024-03-26T06:40:58.155Z,19.67